Terminal Aerodrome Forecast
Issued by NWS Austin/San Antonio, TX

Home | Current Version | Previous Version | Text Only | Print | Product List | Glossary On
Versions: 1 2 3 4 5 6 7 8 9 10 11 12 13 14 15 16 17
000
FTUS44 KEWX 010200 AAB
TAFDRT
TAF AMD
KDRT 010205Z 0102/0124 10007KT 5SM BR OVC006
     FM010400 10006KT 3SM BR OVC003
     FM010800 10005KT 1SM BR OVC002
     FM011500 14005KT P6SM OVC009=

USA.gov is the U.S. government's official web portal to all federal, state and local government web resources and services.